Aviation Digital Data Service (ADDS)

Output produced by TAFs form (0752 UTC 23 April 2018)
found at http://aviationweather.gov/adds/tafs/
 
METAR text: RJOT 230700Z 08006KT 040V110 9999 FEW035 SCT120 BKN150 20/12 Q1015
Conditions at: RJOT (TAKAMATSU AIRPOR, JP) observed 0700 UTC 23 April 2018
Temperature: 20.0°C (68°F)
Dewpoint: 12.0°C (54°F) [RH = 60%]
Pressure (altimeter): 29.97 inches Hg (1015.0 mb)
Winds: from the E (80 degrees) at 7 MPH (6 knots; 3.1 m/s)
Visibility: 6 or more miles (10+ km)
Ceiling: 15000 feet AGL
Clouds: few clouds at 3500 feet AGL
scattered clouds at 12000 feet AGL
broken clouds at 15000 feet AGL
Weather: no significant weather observed at this time

Forecast for: RJOT (TAKAMATSU AIRPOR, JP)
Text: TAF RJOT 230506Z 2306/2412 01006KT 9999 FEW025 BKN070
Forecast period: 0600 UTC 23 April 2018 to 0300 UTC 24 April 2018
Forecast type: FROM: standard forecast or significant change
Winds: from the N (10 degrees) at 7 MPH (6 knots; 3.1 m/s)
Visibility: 6 or more miles (10+ km)
Ceiling: 7000 feet AGL
Clouds: few clouds at 2500 feet AGL
broken clouds at 7000 feet AGL
Weather: no significant weather forecast for this period
Forecast for: RJOT (TAKAMATSU AIRPOR, JP)
Text: TAF RJOT 230506Z 2306/2412 01006KT 9999 FEW025 BKN070
Forecast period: 0600 UTC 23 April 2018 to 0300 UTC 24 April 2018
Forecast type: FROM: standard forecast or significant change
Winds: from the N (10 degrees) at 7 MPH (6 knots; 3.1 m/s)
Visibility: 6 or more miles (10+ km)
Ceiling: 7000 feet AGL
Clouds: few clouds at 2500 feet AGL
broken clouds at 7000 feet AGL
Weather: no significant weather forecast for this period
Forecast for: RJOT (TAKAMATSU AIRPOR, JP)
Text: TAF RJOT 230506Z 2306/2412 01006KT 9999 FEW025 BKN070
Forecast period: 0300 to 0600 UTC 24 April 2018
Forecast type: BECOMING: Conditions expected to become as follows by 0600 UTC 24 April 2018
Winds: from the N (10 degrees) at 7 MPH (6 knots; 3.1 m/s)
Visibility: 2.49 miles (4.01 km)
Ceiling: 800 feet AGL
Clouds: few clouds at 200 feet AGL
scattered clouds at 400 feet AGL
broken clouds at 800 feet AGL
Weather: -SHRA BR  (light rain showers, mist)
Forecast for: RJOT (TAKAMATSU AIRPOR, JP)
Text: TAF RJOT 230506Z 2306/2412 01006KT 9999 FEW025 BKN070
Forecast period: 0300 to 0600 UTC 24 April 2018
Forecast type: BECOMING: Conditions expected to become as follows by 0600 UTC 24 April 2018
Winds: from the N (10 degrees) at 7 MPH (6 knots; 3.1 m/s)
Visibility: 2.49 miles (4.01 km)
Ceiling: 800 feet AGL
Clouds: few clouds at 200 feet AGL
scattered clouds at 400 feet AGL
broken clouds at 800 feet AGL
Weather: -SHRA BR  (light rain showers, mist)
Forecast for: RJOT (TAKAMATSU AIRPOR, JP)
Text: TAF RJOT 230506Z 2306/2412 01006KT 9999 FEW025 BKN070
Forecast period: 0600 to 1200 UTC 24 April 2018
Forecast type: BECOMING: Conditions expected to become as follows by 0900 UTC 24 April 2018
Winds: from the WSW (240 degrees) at 7 MPH (6 knots; 3.1 m/s)
Visibility: 2.49 miles (4.01 km)
Ceiling: 800 feet AGL
Clouds: few clouds at 200 feet AGL
scattered clouds at 400 feet AGL
broken clouds at 800 feet AGL
Weather: -SHRA BR  (light rain showers, mist)
Forecast for: RJOT (TAKAMATSU AIRPOR, JP)
Text: TAF RJOT 230506Z 2306/2412 01006KT 9999 FEW025 BKN070
Forecast period: 0600 to 1200 UTC 24 April 2018
Forecast type: BECOMING: Conditions expected to become as follows by 0900 UTC 24 April 2018
Winds: from the WSW (240 degrees) at 7 MPH (6 knots; 3.1 m/s)
Visibility: 2.49 miles (4.01 km)
Ceiling: 800 feet AGL
Clouds: few clouds at 200 feet AGL
scattered clouds at 400 feet AGL
broken clouds at 800 feet AGL
Weather: -SHRA BR  (light rain showers, mist)
Forecast for: RJOT (TAKAMATSU AIRPOR, JP)
Text: TAF RJOT 230506Z 2306/2412 01006KT 9999 FEW025 BKN070
Forecast period: 0600 to 0900 UTC 24 April 2018
Forecast type: TEMPORARY: The following changes expected for less than half the time period
Visibility: 1.86 miles (2.99 km)
Ceiling: 500 feet AGL
Clouds: few clouds at 100 feet AGL
scattered clouds at 300 feet AGL
broken clouds at 500 feet AGL
Weather: SHRA BR  (rain showers, mist)
Forecast for: RJOT (TAKAMATSU AIRPOR, JP)
Text: TAF RJOT 230506Z 2306/2412 01006KT 9999 FEW025 BKN070
Forecast period: 0600 to 0900 UTC 24 April 2018
Forecast type: TEMPORARY: The following changes expected for less than half the time period
Visibility: 1.86 miles (2.99 km)
Ceiling: 500 feet AGL
Clouds: few clouds at 100 feet AGL
scattered clouds at 300 feet AGL
broken clouds at 500 feet AGL
Weather: SHRA BR  (rain showers, mist)
Forecast for: RJOT (TAKAMATSU AIRPOR, JP)
Text: TAF RJOT 230506Z 2306/2412 01006KT 9999 FEW025 BKN070
Forecast period: 0900 to 1200 UTC 24 April 2018
Forecast type: TEMPORARY: The following changes expected for less than half the time period
Visibility: 0.93 miles (1.50 km)
Ceiling: 500 feet AGL
Clouds: few clouds at 100 feet AGL
scattered clouds at 300 feet AGL
broken clouds at 500 feet AGL
Weather: SHRA BR  (rain showers, mist)
Forecast for: RJOT (TAKAMATSU AIRPOR, JP)
Text: TAF RJOT 230506Z 2306/2412 01006KT 9999 FEW025 BKN070
Forecast period: 0900 to 1200 UTC 24 April 2018
Forecast type: TEMPORARY: The following changes expected for less than half the time period
Visibility: 0.93 miles (1.50 km)
Ceiling: 500 feet AGL
Clouds: few clouds at 100 feet AGL
scattered clouds at 300 feet AGL
broken clouds at 500 feet AGL
Weather: SHRA BR  (rain showers, mist)